createdAt,value
2023-03-10T00:00:51.120Z,26.23
2023-03-10T00:05:54.842Z,26.87
2023-03-10T00:10:58.662Z,21.55
2023-03-10T00:16:03.880Z,19.50
2023-03-10T00:21:07.609Z,28.42
2023-03-10T00:26:13.596Z,19.02
2023-03-10T00:31:21.473Z,23.17
2023-03-10T00:36:27.458Z,21.10
2023-03-10T00:41:35.560Z,18.25
2023-03-10T00:46:40.908Z,22.20
2023-03-10T00:51:46.145Z,23.98
2023-03-10T00:56:50.410Z,25.65
2023-03-10T01:01:55.577Z,29.27
2023-03-10T01:06:59.411Z,24.85
2023-03-10T01:12:03.252Z,24.92
2023-03-10T01:17:08.311Z,37.53
2023-03-10T01:22:12.019Z,50.25
2023-03-10T01:27:15.865Z,63.33
2023-03-10T01:32:20.970Z,64.25
2023-03-10T01:37:25.530Z,62.33
2023-03-10T01:42:29.259Z,65.78
2023-03-10T01:47:34.377Z,58.33
2023-03-10T01:52:41.994Z,60.87
2023-03-10T01:57:50.323Z,71.05
2023-03-10T02:08:02.261Z,42.40
2023-03-10T02:13:06.161Z,47.22
2023-03-10T02:18:14.137Z,42.85
2023-03-10T02:23:28.361Z,40.75
2023-03-10T02:28:33.496Z,38.67
2023-03-10T02:33:38.601Z,45.47
2023-03-10T02:38:42.583Z,37.47
2023-03-10T02:43:49.752Z,29.00
2023-03-10T02:54:00.390Z,42.03
2023-03-10T02:59:06.943Z,34.58
2023-03-10T03:04:11.211Z,35.10
2023-03-10T03:09:14.995Z,43.58
2023-03-10T03:14:20.133Z,35.17
2023-03-10T03:19:24.933Z,37.03
2023-03-10T03:24:32.071Z,31.73
2023-03-10T03:29:37.460Z,41.40
2023-03-10T03:34:42.019Z,38.63
2023-03-10T03:39:46.181Z,40.00
2023-03-10T03:44:51.536Z,34.65
2023-03-10T03:49:56.469Z,33.38
2023-03-10T03:55:00.418Z,36.58
2023-03-10T04:00:08.556Z,35.28
2023-03-10T04:05:16.134Z,37.50
2023-03-10T04:10:21.434Z,26.65
2023-03-10T04:15:26.889Z,24.65
2023-03-10T04:20:30.933Z,29.27
2023-03-10T04:25:36.320Z,23.45
2023-03-10T04:30:47.745Z,32.45
2023-03-10T04:35:53.547Z,28.35
2023-03-10T04:40:58.895Z,22.77
2023-03-10T04:46:05.118Z,28.85
2023-03-10T04:51:11.235Z,28.35
2023-03-10T04:56:15.928Z,25.77
2023-03-10T05:01:21.183Z,26.73
2023-03-10T05:06:25.390Z,27.98
2023-03-10T05:11:30.236Z,31.40
2023-03-10T05:16:35.568Z,31.17
2023-03-10T05:21:39.432Z,32.92
2023-03-10T05:26:43.332Z,27.77
2023-03-10T05:31:48.594Z,28.40
2023-03-10T05:36:53.674Z,34.17
2023-03-10T05:41:57.712Z,38.20
2023-03-10T05:47:03.209Z,33.75
2023-03-10T05:52:07.614Z,31.98
2023-03-10T05:57:13.992Z,42.62
2023-03-10T06:02:19.541Z,35.83
2023-03-10T06:07:23.271Z,44.20
2023-03-10T06:12:27.031Z,27.60
2023-03-10T06:17:32.070Z,28.70
2023-03-10T06:22:35.799Z,30.10
2023-03-10T06:27:39.518Z,28.48
2023-03-10T06:32:44.643Z,20.27
2023-03-10T06:37:48.364Z,29.45
2023-03-10T06:42:52.100Z,19.35
2023-03-10T06:47:57.208Z,20.77
2023-03-10T06:53:01.510Z,14.43
2023-03-10T06:58:05.224Z,14.73
2023-03-10T07:03:11.524Z,14.32
2023-03-10T07:08:15.243Z,13.05
2023-03-10T07:13:19.093Z,13.07
2023-03-10T07:18:27.740Z,15.43
2023-03-10T07:23:31.470Z,27.33
2023-03-10T07:28:36.376Z,23.95
2023-03-10T07:33:41.531Z,20.10
2023-03-10T07:38:45.740Z,25.45
2023-03-10T07:43:53.624Z,25.37
2023-03-10T07:49:00.399Z,30.50
2023-03-10T07:54:04.228Z,33.20
2023-03-10T07:59:07.886Z,26.52
2023-03-10T08:04:14.325Z,29.92
2023-03-10T08:09:18.131Z,28.40
2023-03-10T08:14:24.079Z,37.95
2023-03-10T08:19:29.557Z,27.13
2023-03-10T08:24:33.372Z,32.40
2023-03-10T08:29:37.813Z,25.88
2023-03-10T08:34:43.651Z,25.70
2023-03-10T08:39:47.502Z,20.48
2023-03-10T08:44:51.288Z,22.20
2023-03-10T08:49:56.477Z,19.50
2023-03-10T08:55:00.236Z,17.12
2023-03-10T09:00:06.436Z,23.12
2023-03-10T09:05:11.839Z,26.87
2023-03-10T09:10:15.551Z,22.27
2023-03-10T09:15:20.022Z,19.08
2023-03-10T09:20:28.274Z,23.90
2023-03-10T09:25:33.224Z,19.55
2023-03-10T09:30:38.557Z,22.90
2023-03-10T09:35:52.500Z,20.23
2023-03-10T09:41:08.055Z,16.67
2023-03-10T09:46:21.731Z,15.40
2023-03-10T09:51:29.544Z,15.48
2023-03-10T09:56:35.424Z,7.65
2023-03-10T10:01:44.262Z,15.00
2023-03-10T10:06:50.980Z,16.00
2023-03-10T10:11:56.280Z,15.07
2023-03-10T10:17:15.044Z,16.08
2023-03-10T10:22:25.571Z,20.77
2023-03-10T10:27:32.440Z,15.73
2023-03-10T10:32:56.950Z,12.48
2023-03-10T10:38:04.487Z,16.73
2023-03-10T10:43:17.629Z,11.47
2023-03-10T10:48:38.834Z,8.27
2023-03-10T10:53:44.581Z,7.25
2023-03-10T10:59:03.125Z,11.48
2023-03-10T11:04:09.001Z,10.48
2023-03-10T11:09:23.108Z,13.07
2023-03-10T11:14:49.782Z,15.40
2023-03-10T11:20:01.812Z,8.07
2023-03-10T11:25:19.021Z,11.65
2023-03-10T11:30:31.664Z,9.18
2023-03-10T11:35:43.788Z,8.13
2023-03-10T11:40:56.357Z,3.53
2023-03-10T11:46:04.833Z,5.78
2023-03-10T11:51:15.737Z,6.00
2023-03-10T11:56:24.416Z,7.68
2023-03-10T12:01:32.235Z,7.78
2023-03-10T12:06:42.944Z,10.05
2023-03-10T12:11:49.284Z,8.07
2023-03-10T12:16:55.401Z,7.90
2023-03-10T12:22:37.859Z,8.60
2023-03-10T12:28:14.821Z,14.93
2023-03-10T12:38:54.550Z,5.22
2023-03-10T12:43:59.664Z,5.03
2023-03-10T12:49:16.032Z,4.95
2023-03-10T12:54:37.596Z,4.40
2023-03-10T12:59:45.484Z,6.85
2023-03-10T13:04:49.414Z,5.25
2023-03-10T13:09:55.572Z,4.78
2023-03-10T13:15:01.088Z,3.10
2023-03-10T13:20:09.200Z,2.30
2023-03-10T13:25:16.193Z,2.40
2023-03-10T13:30:22.962Z,2.17
2023-03-10T13:35:32.065Z,1.58
2023-03-10T13:40:38.672Z,2.35
2023-03-10T13:45:43.639Z,2.20
2023-03-10T13:50:47.654Z,2.60
2023-03-10T13:55:52.691Z,1.42
2023-03-10T14:00:57.479Z,2.10
2023-03-10T14:06:01.240Z,1.35
2023-03-10T14:11:33.959Z,1.50
2023-03-10T14:16:55.156Z,2.55
2023-03-10T14:22:02.235Z,3.58
2023-03-10T14:27:11.730Z,5.20
2023-03-10T14:32:15.723Z,3.80
2023-03-10T14:37:19.880Z,5.40
2023-03-10T14:42:30.203Z,4.03
2023-03-10T14:47:34.586Z,5.32
2023-03-10T14:52:38.381Z,7.37
2023-03-10T14:57:46.239Z,8.02
2023-03-10T15:02:50.090Z,9.50
2023-03-10T15:07:53.817Z,5.00
2023-03-10T15:12:58.853Z,7.72
2023-03-10T15:18:02.601Z,9.18
2023-03-10T15:23:06.532Z,8.48
2023-03-10T15:28:12.304Z,8.25
2023-03-10T15:33:16.589Z,6.53
2023-03-10T15:38:20.302Z,6.62
2023-03-10T15:43:25.539Z,7.10
2023-03-10T15:48:29.570Z,8.80
2023-03-10T15:53:33.585Z,7.75
2023-03-10T15:58:38.929Z,7.07
2023-03-10T16:03:43.043Z,9.88
2023-03-10T16:08:48.082Z,11.18
2023-03-10T16:13:53.159Z,9.35
2023-03-10T16:18:56.884Z,6.47
2023-03-10T16:24:00.637Z,6.80
2023-03-10T16:29:05.701Z,6.12
2023-03-10T16:34:09.546Z,5.10
2023-03-10T16:39:15.659Z,3.17
2023-03-10T16:44:22.463Z,2.72
2023-03-10T16:49:26.329Z,1.90
2023-03-10T16:54:30.030Z,2.80
2023-03-10T16:59:35.182Z,1.27
2023-03-10T17:04:38.921Z,4.45
2023-03-10T17:09:42.624Z,3.10
2023-03-10T17:14:47.655Z,0.88
2023-03-10T17:19:51.812Z,3.28
2023-03-10T17:24:56.580Z,3.25
2023-03-10T17:30:02.086Z,6.50
2023-03-10T17:35:06.714Z,4.80
2023-03-10T17:40:15.185Z,3.30
2023-03-10T17:45:20.273Z,5.70
2023-03-10T17:50:25.460Z,8.18
2023-03-10T17:55:29.144Z,1.48
2023-03-10T18:00:34.392Z,1.33
2023-03-10T18:05:40.460Z,2.08
2023-03-10T18:10:44.221Z,3.67
2023-03-10T18:15:52.123Z,4.57
2023-03-10T18:20:55.893Z,5.00
2023-03-10T18:25:59.902Z,3.65
2023-03-10T18:31:07.783Z,6.47
2023-03-10T18:36:13.637Z,8.00
2023-03-10T18:41:20.296Z,7.35
2023-03-10T18:46:25.468Z,5.62
2023-03-10T18:51:30.258Z,7.57
2023-03-10T18:56:33.987Z,3.70
2023-03-10T19:01:39.214Z,11.12
2023-03-10T19:06:43.151Z,6.95
2023-03-10T19:11:48.260Z,14.52
2023-03-10T19:16:53.391Z,13.82
2023-03-10T19:21:57.133Z,8.90
2023-03-10T19:27:04.025Z,10.73
2023-03-10T19:32:09.302Z,11.00
2023-03-10T19:37:13.081Z,4.43
2023-03-10T19:42:17.078Z,15.75
2023-03-10T19:47:22.394Z,8.90
2023-03-10T19:52:26.819Z,6.87
2023-03-10T19:57:30.638Z,11.90
2023-03-10T20:02:35.724Z,7.93
2023-03-10T20:07:39.908Z,6.05
2023-03-10T20:12:43.883Z,8.32
2023-03-10T20:17:49.630Z,10.35
2023-03-10T20:22:53.336Z,11.88
2023-03-10T20:27:57.085Z,11.63
2023-03-10T20:33:02.587Z,13.85
2023-03-10T20:38:06.535Z,13.30
2023-03-10T20:43:12.022Z,18.05
2023-03-10T20:48:17.074Z,10.98
2023-03-10T20:53:20.801Z,17.95
2023-03-10T20:58:24.525Z,18.15
2023-03-10T21:03:29.740Z,15.27
2023-03-10T21:08:33.425Z,10.40
2023-03-10T21:13:37.202Z,9.95
2023-03-10T21:18:42.297Z,11.00
2023-03-10T21:23:46.211Z,13.45
2023-03-10T21:28:50.533Z,14.05
2023-03-10T21:33:55.673Z,14.00
2023-03-10T21:38:59.476Z,12.10
2023-03-10T21:44:03.357Z,11.27
2023-03-10T21:49:08.992Z,12.68
2023-03-10T21:54:12.816Z,11.20
2023-03-10T21:59:17.358Z,14.80
2023-03-10T22:04:22.633Z,9.27
2023-03-10T22:09:26.408Z,16.33
2023-03-10T22:14:30.171Z,11.35
2023-03-10T22:19:35.353Z,13.55
2023-03-10T22:24:40.228Z,15.50
2023-03-10T22:29:44.035Z,14.13
2023-03-10T22:34:49.092Z,6.47
2023-03-10T22:39:52.842Z,13.50
2023-03-10T22:44:56.512Z,12.75
2023-03-10T22:50:01.683Z,17.80
2023-03-10T22:55:05.945Z,14.27
2023-03-10T23:00:13.529Z,7.82
2023-03-10T23:05:19.070Z,8.07
2023-03-10T23:10:25.349Z,10.55
2023-03-10T23:15:33.325Z,16.95
2023-03-10T23:25:47.073Z,6.95
2023-03-10T23:30:54.134Z,14.45
2023-03-10T23:35:59.276Z,10.80
2023-03-10T23:41:03.022Z,10.68
2023-03-10T23:46:08.805Z,11.40
2023-03-10T23:51:16.105Z,18.25
2023-03-10T23:56:19.824Z,14.50
